createdAt,value
2023-12-29T00:01:26.952Z,8.1
2023-12-29T00:06:26.966Z,7.9
2023-12-29T00:11:26.991Z,7.6
2023-12-29T00:16:27.162Z,7.6
2023-12-29T00:21:26.975Z,7.6
2023-12-29T00:26:26.919Z,7.7
2023-12-29T00:31:27.028Z,7.8
2023-12-29T00:36:27.417Z,7.8
2023-12-29T00:41:26.984Z,7.8
2023-12-29T00:46:27.078Z,7.9
2023-12-29T00:51:27.242Z,7.9
2023-12-29T00:56:26.982Z,8
2023-12-29T01:01:27.029Z,8.1
2023-12-29T01:06:26.949Z,8
2023-12-29T01:11:26.945Z,7.9
2023-12-29T01:16:26.979Z,7.8
2023-12-29T01:21:26.974Z,7.9
2023-12-29T01:26:27.171Z,7.8
2023-12-29T01:31:27.034Z,7.8
2023-12-29T01:36:26.969Z,7.7
2023-12-29T01:41:26.955Z,7.6
2023-12-29T01:46:27.026Z,7.4
2023-12-29T01:51:26.993Z,7.3
2023-12-29T01:56:27.310Z,7.1
2023-12-29T02:01:27.033Z,7
2023-12-29T02:06:26.973Z,7.1
2023-12-29T02:11:26.942Z,7.2
2023-12-29T02:16:26.977Z,7.2
2023-12-29T02:21:26.965Z,7.2
2023-12-29T02:26:27.234Z,7.3
2023-12-29T02:31:27.095Z,7.3
2023-12-29T02:36:27.040Z,7.3
2023-12-29T02:41:27.004Z,7.4
2023-12-29T02:46:27.038Z,7.4
2023-12-29T02:51:27.018Z,7.4
2023-12-29T02:56:27.024Z,7.4
2023-12-29T03:01:27.270Z,7.4
2023-12-29T03:06:27.584Z,7.3
2023-12-29T03:11:27.027Z,7.3
2023-12-29T03:16:26.997Z,7.3
2023-12-29T03:21:27.072Z,7.1
2023-12-29T03:26:27.029Z,7.1
2023-12-29T03:31:27.381Z,6.9
2023-12-29T03:36:26.988Z,6.9
2023-12-29T03:41:27.028Z,6.9
2023-12-29T03:46:27.073Z,6.8
2023-12-29T03:51:27.008Z,6.8
2023-12-29T03:56:26.998Z,6.6
2023-12-29T04:01:27.926Z,6.7
2023-12-29T04:06:27.067Z,6.6
2023-12-29T04:11:27.053Z,6.5
2023-12-29T04:16:27.042Z,6.4
2023-12-29T04:21:27.030Z,6.5
2023-12-29T04:26:27.052Z,6.4
2023-12-29T04:31:27.063Z,6.5
2023-12-29T04:36:27.023Z,6.4
2023-12-29T04:41:27.044Z,6.3
2023-12-29T04:46:27.030Z,6.1
2023-12-29T04:51:27.246Z,6
2023-12-29T04:56:27.043Z,5.9
2023-12-29T05:01:27.093Z,5.9
2023-12-29T05:06:27.246Z,5.9
2023-12-29T05:11:27.017Z,5.8
2023-12-29T05:16:26.971Z,5.8
2023-12-29T05:21:27.489Z,5.4
2023-12-29T05:26:27.044Z,5.4
2023-12-29T05:31:27.995Z,5.3
2023-12-29T05:36:27.015Z,5.3
2023-12-29T05:41:27.275Z,5.3
2023-12-29T05:46:28.037Z,5.4
2023-12-29T05:51:27.029Z,5.5
2023-12-29T05:56:27.008Z,5.7
2023-12-29T06:01:27.077Z,5.8
2023-12-29T06:06:27.048Z,5.9
2023-12-29T06:11:27.074Z,6
2023-12-29T06:16:27.049Z,6
2023-12-29T06:21:27.006Z,6.2
2023-12-29T06:26:27.033Z,6.3
2023-12-29T06:31:27.047Z,6.4
2023-12-29T06:36:27.030Z,6.5
2023-12-29T06:41:27.056Z,6.6
2023-12-29T06:46:27.086Z,6.6
2023-12-29T06:51:27.042Z,6.7
2023-12-29T06:56:27.060Z,6.8
2023-12-29T07:01:27.294Z,7.1
2023-12-29T07:06:27.023Z,7.3
2023-12-29T07:11:27.031Z,7.4
2023-12-29T07:16:27.128Z,7.5
2023-12-29T07:21:27.030Z,7.3
2023-12-29T07:26:27.054Z,7.3
2023-12-29T07:31:27.053Z,7.2
2023-12-29T07:36:28.286Z,7.4
2023-12-29T07:41:27.007Z,7.5
2023-12-29T07:46:27.162Z,7.7
2023-12-29T07:51:27.035Z,7.8
2023-12-29T07:56:27.013Z,7.9
2023-12-29T08:01:27.089Z,7.9
2023-12-29T08:06:27.068Z,7.9
2023-12-29T08:11:27.379Z,7.9
2023-12-29T08:16:27.025Z,7.9
2023-12-29T08:21:27.047Z,7.9
2023-12-29T08:26:27.035Z,8.1
2023-12-29T08:31:27.022Z,8.2
2023-12-29T08:36:27.511Z,8.4
2023-12-29T08:41:26.991Z,8.3
2023-12-29T08:46:27.533Z,8.3
2023-12-29T08:51:27.053Z,8.4
2023-12-29T08:56:28.879Z,8.5
2023-12-29T09:01:27.132Z,8.6
2023-12-29T09:06:27.276Z,8.5
2023-12-29T09:11:27.006Z,8.5
2023-12-29T09:16:26.983Z,8.6
2023-12-29T09:21:27.030Z,8.6
2023-12-29T09:26:27.040Z,8.8
2023-12-29T09:31:27.094Z,8.9
2023-12-29T09:36:27.032Z,8.8
2023-12-29T09:41:27.285Z,8.7
2023-12-29T09:46:27.079Z,8.6
2023-12-29T09:51:27.064Z,8.6
2023-12-29T09:56:27.051Z,8.6
2023-12-29T10:01:27.132Z,8.4
2023-12-29T10:06:27.097Z,8.3
2023-12-29T10:11:27.069Z,8.3
2023-12-29T10:16:27.270Z,8.1
2023-12-29T10:21:27.078Z,8.1
2023-12-29T10:26:27.064Z,8.1
2023-12-29T10:31:27.092Z,8.1
2023-12-29T10:36:27.273Z,7.9
2023-12-29T10:41:27.029Z,8.1
2023-12-29T10:46:27.318Z,8.3
2023-12-29T10:51:27.287Z,8.4
2023-12-29T10:56:27.050Z,8.5
2023-12-29T11:01:27.134Z,8.4
2023-12-29T11:06:27.044Z,8.6
2023-12-29T11:11:27.066Z,8.7
2023-12-29T11:16:27.177Z,8.9
2023-12-29T11:21:27.423Z,9
2023-12-29T11:26:27.023Z,9.3
2023-12-29T11:31:27.120Z,9.8
2023-12-29T11:36:30.843Z,10.1
2023-12-29T11:41:27.054Z,10.1
2023-12-29T11:46:27.143Z,10.3
2023-12-29T11:51:27.284Z,10.2
2023-12-29T11:56:27.136Z,9.9
2023-12-29T12:01:27.146Z,9.9
2023-12-29T12:06:27.411Z,9.8
2023-12-29T12:11:27.152Z,9.9
2023-12-29T12:16:27.755Z,10
2023-12-29T12:21:27.082Z,9.9
2023-12-29T12:26:27.120Z,9.9
2023-12-29T12:31:27.300Z,9.8
2023-12-29T12:36:27.067Z,9.8
2023-12-29T12:41:27.063Z,9.8
2023-12-29T12:46:27.193Z,10
2023-12-29T12:51:27.104Z,10.6
2023-12-29T12:56:27.114Z,11
2023-12-29T13:01:27.691Z,11.1
2023-12-29T13:06:27.074Z,11.2
2023-12-29T13:11:27.184Z,11.1
2023-12-29T13:16:27.114Z,11.1
2023-12-29T13:21:27.137Z,11.2
2023-12-29T13:26:27.098Z,11.3
2023-12-29T13:31:27.151Z,11.2
2023-12-29T13:36:27.732Z,11.2
2023-12-29T13:41:27.136Z,11
2023-12-29T13:46:27.338Z,11
2023-12-29T13:51:27.142Z,10.9
2023-12-29T13:56:27.119Z,10.9
2023-12-29T14:01:27.163Z,10.8
2023-12-29T14:06:27.065Z,10.9
2023-12-29T14:11:27.093Z,10.8
2023-12-29T14:16:27.503Z,10.6
2023-12-29T14:21:27.277Z,10.6
2023-12-29T14:26:27.084Z,10.6
2023-12-29T14:31:28.161Z,10.6
2023-12-29T14:36:27.385Z,10.6
2023-12-29T14:41:27.086Z,10.6
2023-12-29T14:46:27.132Z,10.5
2023-12-29T14:51:27.119Z,10.3
2023-12-29T14:56:27.057Z,10.3
2023-12-29T15:01:27.145Z,10.4
2023-12-29T15:06:27.061Z,10.1
2023-12-29T15:11:27.984Z,10.2
2023-12-29T15:16:27.151Z,9.9
2023-12-29T15:21:27.137Z,9.7
2023-12-29T15:26:27.212Z,9.4
2023-12-29T15:31:27.217Z,9.1
2023-12-29T15:36:27.415Z,8.8
2023-12-29T15:41:27.073Z,8.9
2023-12-29T15:46:27.148Z,8.7
2023-12-29T15:51:27.104Z,8.7
2023-12-29T15:56:27.360Z,8.6
2023-12-29T16:01:27.170Z,8.8
2023-12-29T16:06:27.120Z,9.1
2023-12-29T16:11:27.119Z,9.6
2023-12-29T16:16:27.181Z,9.5
2023-12-29T16:21:28.848Z,9.5
2023-12-29T16:26:31.011Z,9.5
2023-12-29T16:31:27.417Z,9.3
2023-12-29T16:36:27.113Z,9.1
2023-12-29T16:41:27.111Z,8.8
2023-12-29T16:46:27.474Z,8.7
2023-12-29T16:51:27.124Z,8.6
2023-12-29T16:56:27.169Z,8.8
2023-12-29T17:01:27.183Z,8.6
2023-12-29T17:06:27.132Z,8.8
2023-12-29T17:11:27.181Z,9
2023-12-29T17:16:27.185Z,9
2023-12-29T17:21:27.093Z,9.2
2023-12-29T17:26:27.156Z,9.2
2023-12-29T17:31:27.219Z,9.1
2023-12-29T17:36:27.172Z,9.1
2023-12-29T17:41:27.134Z,9
2023-12-29T17:46:27.167Z,8.8
2023-12-29T17:51:27.122Z,8.7
2023-12-29T17:56:27.185Z,8.7
2023-12-29T18:01:27.226Z,8.6
2023-12-29T18:06:27.163Z,8.6
2023-12-29T18:11:27.210Z,8.6
2023-12-29T18:16:27.221Z,8.8
2023-12-29T18:21:27.194Z,8.9
2023-12-29T18:26:27.154Z,8.8
2023-12-29T18:31:27.211Z,8.8
2023-12-29T18:36:27.179Z,8.7
2023-12-29T18:41:27.234Z,8.6
2023-12-29T18:46:27.208Z,8.8
2023-12-29T18:51:27.193Z,8.8
2023-12-29T18:56:27.176Z,8.6
2023-12-29T19:01:27.302Z,8.9
2023-12-29T19:06:27.153Z,8.9
2023-12-29T19:11:27.164Z,8.8
2023-12-29T19:16:27.211Z,8.8
2023-12-29T19:21:27.441Z,8.6
2023-12-29T19:26:27.202Z,8.6
2023-12-29T19:31:27.181Z,8.6
2023-12-29T19:36:27.204Z,8.7
2023-12-29T19:41:27.158Z,8.6
2023-12-29T19:46:27.646Z,8.7
2023-12-29T19:51:27.207Z,8.6
2023-12-29T19:56:27.193Z,8.4
2023-12-29T20:01:27.204Z,8.6
2023-12-29T20:06:27.292Z,8.5
2023-12-29T20:11:27.202Z,8.2
2023-12-29T20:16:27.260Z,8.1
2023-12-29T20:21:27.172Z,7.9
2023-12-29T20:26:27.211Z,7.6
2023-12-29T20:31:27.276Z,7.3
2023-12-29T20:36:27.211Z,6.9
2023-12-29T20:41:27.203Z,7.1
2023-12-29T20:46:27.306Z,6.9
2023-12-29T20:51:27.225Z,6.9
2023-12-29T20:56:27.704Z,6.9
2023-12-29T21:01:27.277Z,6.9
2023-12-29T21:06:27.253Z,7
2023-12-29T21:11:27.201Z,7.4
2023-12-29T21:16:27.331Z,7.3
2023-12-29T21:21:27.198Z,7.1
2023-12-29T21:26:27.191Z,7.3
2023-12-29T21:31:27.261Z,7.4
2023-12-29T21:36:27.204Z,7.3
2023-12-29T21:41:27.235Z,7.8
2023-12-29T21:46:27.260Z,7.8
2023-12-29T21:51:27.236Z,7.7
2023-12-29T21:56:27.255Z,7.8
2023-12-29T22:01:27.283Z,8
2023-12-29T22:06:27.209Z,8
2023-12-29T22:11:27.195Z,7.9
2023-12-29T22:16:27.272Z,8
2023-12-29T22:21:27.222Z,8
2023-12-29T22:26:27.200Z,7.9
2023-12-29T22:31:27.244Z,7.9
2023-12-29T22:36:27.194Z,7.7
2023-12-29T22:41:28.266Z,7.6
2023-12-29T22:46:27.219Z,7.5
2023-12-29T22:51:27.207Z,7.4
2023-12-29T22:56:27.164Z,7.4
2023-12-29T23:01:27.280Z,7.4
2023-12-29T23:06:27.229Z,7.4
2023-12-29T23:11:27.218Z,7.4
2023-12-29T23:16:27.253Z,7.5
2023-12-29T23:21:27.220Z,7.3
2023-12-29T23:26:27.218Z,7.3
2023-12-29T23:31:27.283Z,7.4
2023-12-29T23:36:27.312Z,7.4
2023-12-29T23:41:27.188Z,7.2
2023-12-29T23:46:27.757Z,7.2
2023-12-29T23:51:27.280Z,7
2023-12-29T23:56:27.227Z,6.9
